createdAt,value
2022-11-23T00:00:51.477Z,5.1
2022-11-23T00:06:25.130Z,5.1
2022-11-23T00:11:59.698Z,5.1
2022-11-23T00:17:43.059Z,5.2
2022-11-23T00:23:01.729Z,5.2
2022-11-23T00:28:49.416Z,5.1
2022-11-23T00:34:05.149Z,5.2
2022-11-23T00:39:51.423Z,5.2
2022-11-23T00:45:32.098Z,5
2022-11-23T00:50:54.430Z,5
2022-11-23T00:56:33.281Z,5
2022-11-23T01:01:47.214Z,5
2022-11-23T01:07:15.120Z,5
2022-11-23T01:12:49.142Z,4.9
2022-11-23T01:18:17.987Z,4.8
2022-11-23T01:24:01.618Z,4.6
2022-11-23T01:29:26.515Z,4.6
2022-11-23T01:35:21.511Z,4.7
2022-11-23T01:40:46.425Z,4.8
2022-11-23T01:46:17.454Z,5
2022-11-23T01:51:47.944Z,5.1
2022-11-23T01:57:19.240Z,5.1
2022-11-23T02:02:40.908Z,4.8
2022-11-23T02:13:46.607Z,4.8
2022-11-23T02:19:31.438Z,5
2022-11-23T02:24:54.472Z,4.9
2022-11-23T02:30:28.169Z,4.9
2022-11-23T02:35:54.562Z,4.8
2022-11-23T02:41:47.143Z,4.7
2022-11-23T02:47:17.242Z,4.7
2022-11-23T02:52:25.831Z,4.7
2022-11-23T02:58:13.057Z,4.6
2022-11-23T03:03:30.691Z,4.3
2022-11-23T03:09:10.539Z,4.3
2022-11-23T03:14:44.963Z,4.4
2022-11-23T03:20:29.389Z,4.4
2022-11-23T03:25:40.813Z,4.3
2022-11-23T03:31:25.037Z,4.1
2022-11-23T03:36:48.561Z,4
2022-11-23T03:42:28.975Z,4.1
2022-11-23T03:48:07.329Z,4
2022-11-23T03:53:21.951Z,4.1
2022-11-23T03:59:03.910Z,4.1
2022-11-23T04:04:25.027Z,4.2
2022-11-23T04:09:53.452Z,4.1
2022-11-23T04:15:50.187Z,4.2
2022-11-23T04:20:54.415Z,4.1
2022-11-23T04:26:45.733Z,4.1
2022-11-23T04:32:05.463Z,4
2022-11-23T04:37:56.447Z,3.9
2022-11-23T04:43:32.899Z,3.7
2022-11-23T04:48:48.523Z,3.8
2022-11-23T04:54:33.278Z,3.8
2022-11-23T04:59:52.705Z,3.9
2022-11-23T05:05:34.367Z,3.9
2022-11-23T05:10:56.942Z,3.9
2022-11-23T05:16:20.909Z,3.9
2022-11-23T05:21:54.818Z,3.9
2022-11-23T05:27:27.554Z,3.8
2022-11-23T05:38:34.985Z,3.9
2022-11-23T05:44:12.870Z,3.9
2022-11-23T05:49:57.160Z,3.9
2022-11-23T05:55:23.765Z,3.9
2022-11-23T06:00:37.979Z,3.9
2022-11-23T06:06:12.024Z,3.9
2022-11-23T06:11:58.152Z,3.9
2022-11-23T06:17:17.346Z,3.8
2022-11-23T06:23:09.796Z,3.6
2022-11-23T06:28:32.864Z,3.5
2022-11-23T06:34:12.847Z,3.5
2022-11-23T06:39:33.374Z,3.5
2022-11-23T06:45:04.374Z,3.6
2022-11-23T06:50:27.248Z,3.6
2022-11-23T06:56:22.616Z,3.7
2022-11-23T07:01:29.051Z,3.7
2022-11-23T07:07:02.178Z,3.8
2022-11-23T07:12:44.220Z,3.8
2022-11-23T07:18:14.501Z,3.8
2022-11-23T07:23:53.667Z,3.8
2022-11-23T07:29:29.158Z,3.8
2022-11-23T07:34:43.007Z,3.8
2022-11-23T07:40:09.467Z,3.8
2022-11-23T07:45:54.810Z,3.9
2022-11-23T07:51:40.774Z,4.3
2022-11-23T07:57:12.578Z,4.2
2022-11-23T08:02:29.209Z,4.5
2022-11-23T08:07:59.674Z,4.7
2022-11-23T08:13:49.230Z,4.7
2022-11-23T08:19:00.466Z,5.9
2022-11-23T08:24:55.814Z,5.7
2022-11-23T08:30:08.338Z,5.1
2022-11-23T08:35:48.859Z,5.3
2022-11-23T08:41:29.903Z,5.2
2022-11-23T08:46:49.007Z,5
2022-11-23T08:52:35.180Z,5.4
2022-11-23T08:58:13.084Z,5.8
2022-11-23T09:03:33.405Z,6.2
2022-11-23T09:09:12.548Z,5.6
2022-11-23T09:14:41.012Z,4.8
2022-11-23T09:20:03.098Z,5.6
2022-11-23T09:25:31.743Z,6.4
2022-11-23T09:31:27.147Z,6.7
2022-11-23T09:36:48.732Z,6.9
2022-11-23T09:42:22.645Z,6.6
2022-11-23T09:48:00.145Z,6.8
2022-11-23T09:53:16.413Z,7.2
2022-11-23T09:58:47.085Z,7.4
2022-11-23T10:04:21.967Z,7.2
2022-11-23T10:10:02.481Z,7.1
2022-11-23T10:15:44.813Z,7.4
2022-11-23T10:21:04.554Z,7.6
2022-11-23T10:26:45.664Z,8
2022-11-23T10:32:05.261Z,8
2022-11-23T10:38:02.269Z,7.8
2022-11-23T10:49:03.515Z,8
2022-11-23T10:54:14.132Z,7.8
2022-11-23T10:59:55.214Z,8.1
2022-11-23T11:11:20.116Z,8.6
2022-11-23T11:16:26.013Z,8.7
2022-11-23T11:22:21.546Z,8.5
2022-11-23T11:27:32.108Z,8.3
2022-11-23T11:33:19.969Z,7.4
2022-11-23T11:39:08.064Z,7.4
2022-11-23T11:44:34.999Z,7.2
2022-11-23T11:50:04.627Z,7.3
2022-11-23T11:55:39.838Z,7.4
2022-11-23T12:01:08.652Z,7.6
2022-11-23T12:06:45.365Z,8
2022-11-23T12:12:13.245Z,8.1
2022-11-23T12:17:35.273Z,8.4
2022-11-23T12:23:00.100Z,7.7
2022-11-23T12:28:40.855Z,7.6
2022-11-23T12:34:22.130Z,7.5
2022-11-23T12:40:07.036Z,7.4
2022-11-23T12:45:37.665Z,7.6
2022-11-23T12:51:02.912Z,7.9
2022-11-23T12:56:40.758Z,7.6
2022-11-23T13:01:57.151Z,7.7
2022-11-23T13:07:49.400Z,7.7
2022-11-23T13:13:03.427Z,7.7
2022-11-23T13:18:49.959Z,8
2022-11-23T13:24:07.716Z,8.2
2022-11-23T13:29:43.492Z,8.1
2022-11-23T13:35:28.274Z,7.9
2022-11-23T13:41:04.420Z,7.8
2022-11-23T13:46:30.619Z,7.7
2022-11-23T13:52:03.483Z,7.8
2022-11-23T13:57:41.688Z,7.9
2022-11-23T14:03:20.812Z,7.9
2022-11-23T14:08:57.992Z,7.8
2022-11-23T14:14:25.028Z,7.6
2022-11-23T14:20:05.666Z,7.6
2022-11-23T14:25:23.547Z,7.3
2022-11-23T14:30:53.257Z,7.1
2022-11-23T14:36:28.769Z,6.9
2022-11-23T14:42:18.029Z,6.9
2022-11-23T14:47:27.110Z,6.9
2022-11-23T14:53:04.112Z,6.7
2022-11-23T14:58:37.099Z,6.7
2022-11-23T15:04:12.824Z,6.6
2022-11-23T15:09:46.041Z,6.4
2022-11-23T15:15:32.664Z,6.4
2022-11-23T15:20:50.256Z,6.3
2022-11-23T15:26:34.964Z,6.1
2022-11-23T15:32:22.827Z,5.9
2022-11-23T15:37:50.551Z,5.9
2022-11-23T15:43:14.057Z,6
2022-11-23T15:48:38.374Z,6.1
2022-11-23T15:54:19.278Z,6
2022-11-23T15:59:43.596Z,5.9
2022-11-23T16:05:28.528Z,5.9
2022-11-23T16:10:46.531Z,6
2022-11-23T16:16:42.775Z,6
2022-11-23T16:22:12.450Z,6
2022-11-23T16:27:25.843Z,6
2022-11-23T16:32:54.757Z,5.9
2022-11-23T16:38:29.208Z,5.9
2022-11-23T16:44:21.015Z,5.9
2022-11-23T16:49:34.162Z,5.9
2022-11-23T16:55:09.401Z,5.9
2022-11-23T17:01:03.526Z,6
2022-11-23T17:06:26.397Z,5.9
2022-11-23T17:11:54.524Z,5.9
2022-11-23T17:17:23.936Z,5.8
2022-11-23T17:23:06.297Z,5.8
2022-11-23T17:28:41.736Z,5.8
2022-11-23T17:34:03.692Z,5.8
2022-11-23T17:39:51.308Z,5.8
2022-11-23T17:45:10.897Z,5.8
2022-11-23T17:50:34.532Z,5.8
2022-11-23T17:56:33.364Z,5.9
2022-11-23T18:01:45.417Z,5.9
2022-11-23T18:07:34.491Z,5.9
2022-11-23T18:13:14.387Z,6
2022-11-23T18:18:44.501Z,6.2
2022-11-23T18:24:13.512Z,6.3
2022-11-23T18:29:31.269Z,6.5
2022-11-23T18:35:05.197Z,6.5
2022-11-23T18:40:55.902Z,6.5
2022-11-23T18:46:27.812Z,6.5
2022-11-23T18:51:47.863Z,6.4
2022-11-23T18:57:14.484Z,6.3
2022-11-23T19:02:40.984Z,6.2
2022-11-23T19:08:34.076Z,6.3
2022-11-23T19:13:46.502Z,6.2
2022-11-23T19:19:42.424Z,6.2
2022-11-23T19:25:02.875Z,6.1
2022-11-23T19:30:36.292Z,6.4
2022-11-23T19:36:06.767Z,6.3
2022-11-23T19:41:35.589Z,6.2
2022-11-23T19:47:08.648Z,6.3
2022-11-23T19:53:11.073Z,6.5
2022-11-23T19:58:20.056Z,6.7
2022-11-23T20:03:37.920Z,6.8
2022-11-23T20:09:15.460Z,7.1
2022-11-23T20:14:49.724Z,7.1
2022-11-23T20:20:40.790Z,7.2
2022-11-23T20:26:01.200Z,7.1
2022-11-23T20:31:36.237Z,7.2
2022-11-23T20:36:55.469Z,7.2
2022-11-23T20:42:41.789Z,7.2
2022-11-23T20:47:57.733Z,7.2
2022-11-23T20:53:34.841Z,7.3
2022-11-23T20:59:02.895Z,7.4
2022-11-23T21:04:41.490Z,7.4
2022-11-23T21:10:34.372Z,7.4
2022-11-23T21:15:45.053Z,7.4
2022-11-23T21:21:35.798Z,7.3
2022-11-23T21:27:02.109Z,7.3
2022-11-23T21:32:30.324Z,7.2
2022-11-23T21:38:08.870Z,7.1
2022-11-23T21:43:36.961Z,6.9
2022-11-23T21:49:23.178Z,7
2022-11-23T21:54:45.770Z,7.1
2022-11-23T22:00:14.131Z,6.9
2022-11-23T22:06:00.464Z,7.1
2022-11-23T22:11:10.954Z,7.1
2022-11-23T22:16:40.473Z,7
2022-11-23T22:22:19.155Z,7
2022-11-23T22:28:07.853Z,7
2022-11-23T22:33:34.057Z,7.1
2022-11-23T22:39:14.877Z,7.2
2022-11-23T22:44:42.281Z,7.1
2022-11-23T22:50:13.877Z,7.1
2022-11-23T22:55:49.633Z,7.3
2022-11-23T23:01:20.172Z,7.4
2022-11-23T23:06:38.131Z,7.6
2022-11-23T23:12:10.019Z,7.6
2022-11-23T23:17:51.981Z,7.6
2022-11-23T23:23:34.995Z,7.6
2022-11-23T23:28:54.555Z,7.6
2022-11-23T23:34:43.281Z,7.7
2022-11-23T23:40:00.538Z,7.6
2022-11-23T23:45:45.647Z,7.5
2022-11-23T23:51:16.154Z,7.4
2022-11-23T23:56:33.449Z,7.4
